Time;durP1;ratioP1;P1;durP2;ratioP2;P2;SDS_P1;SDS_P2;PMS_P1;PMS_P2;Temp;Humidity;BMP_temperature;BMP_pressure;BME280_temperature;BME280_humidity;BME280_pressure;Samples;Min_cycle;Max_cycle;Signal;HPM_P1;HPM_P2
2023/05/27 00:00:57;;;;;;;4.33;1.80;;;13.30;92.10;;;;;;5045010;28;20805;-58
2023/05/27 00:03:23;;;;;;;6.20;1.87;;;13.30;92.00;;;;;;5047329;28;20428;-59
2023/05/27 00:05:49;;;;;;;7.40;2.27;;;13.40;92.00;;;;;;5044728;28;20636;-58
2023/05/27 00:08:14;;;;;;;4.53;2.50;;;13.40;91.90;;;;;;5047903;28;20736;-59
2023/05/27 00:10:40;;;;;;;4.23;2.67;;;13.50;91.80;;;;;;5052642;28;20649;-59
2023/05/27 00:13:05;;;;;;;6.03;1.70;;;13.60;91.70;;;;;;5050371;28;20221;-59
2023/05/27 00:15:31;;;;;;;7.80;2.00;;;13.60;91.80;;;;;;5052674;28;20580;-58
2023/05/27 00:17:59;;;;;;;3.63;1.93;;;13.60;91.90;;;;;;5051278;28;20182;-59
2023/05/27 00:20:25;;;;;;;9.00;2.30;;;13.60;91.50;;;;;;5044165;28;20174;-59
2023/05/27 00:22:51;;;;;;;2.90;1.40;;;13.60;91.80;;;;;;5046206;28;20902;-59
2023/05/27 00:25:20;;;;;;;5.03;2.17;;;13.60;91.30;;;;;;5039811;28;20224;-59
2023/05/27 00:27:46;;;;;;;5.93;2.43;;;13.60;91.70;;;;;;5052004;28;20264;-59
2023/05/27 00:30:12;;;;;;;9.33;3.20;;;13.60;91.70;;;;;;5041924;28;20431;-59
2023/05/27 00:32:37;;;;;;;11.73;2.70;;;13.50;92.00;;;;;;5051877;28;20464;-59
2023/05/27 00:35:03;;;;;;;3.00;1.87;;;13.60;91.70;;;;;;5052507;28;20263;-58
2023/05/27 00:37:29;;;;;;;23.80;1.80;;;13.40;91.30;;;;;;5052160;28;20178;-59
2023/05/27 00:39:54;;;;;;;4.63;2.50;;;13.30;91.70;;;;;;5052141;28;20791;-59
2023/05/27 00:42:20;;;;;;;7.23;2.83;;;13.30;91.60;;;;;;5051551;28;20189;-58
2023/05/27 00:44:46;;;;;;;9.20;2.27;;;13.30;91.70;;;;;;5043631;28;20592;-59
2023/05/27 00:47:11;;;;;;;4.43;2.30;;;13.30;91.60;;;;;;5052217;28;20208;-58
2023/05/27 00:49:38;;;;;;;4.03;2.13;;;13.20;91.70;;;;;;5051999;28;20193;-58
2023/05/27 00:52:04;;;;;;;4.13;2.07;;;13.20;91.90;;;;;;5051435;28;20213;-58
2023/05/27 00:54:31;;;;;;;4.20;1.93;;;13.20;91.80;;;;;;5049199;28;20536;-58
2023/05/27 00:56:57;;;;;;;4.47;2.00;;;13.10;92.00;;;;;;5048125;28;20425;-58
2023/05/27 00:59:23;;;;;;;7.93;2.00;;;13.00;92.10;;;;;;5048447;28;20427;-58
2023/05/27 01:01:49;;;;;;;6.87;1.90;;;13.00;92.30;;;;;;5050562;28;20436;-58
2023/05/27 01:04:15;;;;;;;6.33;2.53;;;12.90;92.40;;;;;;5051921;28;20182;-59
2023/05/27 01:07:22;;;;;;;3.10;2.07;;;13.00;92.50;;;;;;5051473;28;20440;-59
2023/05/27 01:10:14;;;;;;;8.60;2.30;;;12.90;92.60;;;;;;5051553;28;20435;-59
2023/05/27 01:13:04;;;;;;;3.63;1.83;;;12.70;92.70;;;;;;5051606;28;20997;-59
2023/05/27 01:15:32;;;;;;;10.43;2.10;;;12.70;92.90;;;;;;5051817;28;20423;-59
2023/05/27 01:18:01;;;;;;;3.83;2.00;;;12.60;93.20;;;;;;5049785;28;20430;-59
2023/05/27 01:20:29;;;;;;;6.70;2.63;;;12.60;93.10;;;;;;5029984;28;20504;-59
2023/05/27 01:22:57;;;;;;;7.10;2.23;;;12.50;93.20;;;;;;5051068;28;20456;-59
2023/05/27 01:25:23;;;;;;;3.47;1.97;;;12.40;93.20;;;;;;5051761;28;20540;-59
2023/05/27 01:27:51;;;;;;;9.27;2.60;;;12.40;93.40;;;;;;5051972;28;20432;-58
2023/05/27 01:30:17;;;;;;;4.73;1.97;;;12.30;93.40;;;;;;5030432;28;20496;-58
2023/05/27 01:32:53;;;;;;;6.40;1.97;;;12.30;93.50;;;;;;5051433;28;20551;-58
2023/05/27 01:35:44;;;;;;;5.00;2.33;;;12.30;93.60;;;;;;5051811;28;20275;-58
2023/05/27 01:38:15;;;;;;;3.90;2.23;;;12.30;93.60;;;;;;5051581;28;20412;-58
2023/05/27 01:40:42;;;;;;;5.10;2.40;;;12.20;93.70;;;;;;5051478;28;20412;-58
2023/05/27 01:43:11;;;;;;;4.60;2.40;;;12.20;93.90;;;;;;5047432;28;20425;-58
2023/05/27 01:45:37;;;;;;;3.70;1.70;;;12.20;94.30;;;;;;5046565;28;20424;-58
2023/05/27 01:48:03;;;;;;;2.70;1.50;;;12.20;94.00;;;;;;5051541;28;20436;-58
2023/05/27 01:50:30;;;;;;;7.00;2.27;;;12.30;94.20;;;;;;5051532;28;20424;-59
2023/05/27 01:52:56;;;;;;;4.90;2.40;;;12.20;94.20;;;;;;5051239;28;20624;-59
2023/05/27 01:55:22;;;;;;;5.37;2.10;;;12.20;94.20;;;;;;5044400;28;20417;-58
2023/05/27 01:57:48;;;;;;;7.97;2.20;;;12.20;94.30;;;;;;5052041;28;20461;-59
2023/05/27 02:00:15;;;;;;;6.27;2.80;;;12.20;94.50;;;;;;5033950;28;20190;-59
2023/05/27 02:02:41;;;;;;;11.23;3.17;;;12.10;94.60;;;;;;5051075;28;20185;-58
2023/05/27 02:05:07;;;;;;;7.47;2.27;;;12.00;94.70;;;;;;5050714;28;20478;-58
2023/05/27 02:07:33;;;;;;;6.07;1.97;;;12.00;94.80;;;;;;5050141;28;20240;-58
2023/05/27 02:09:58;;;;;;;8.13;2.37;;;11.90;95.00;;;;;;5043448;28;20533;-58
2023/05/27 02:12:24;;;;;;;4.80;2.30;;;11.70;95.40;;;;;;5041454;28;20507;-58
2023/05/27 02:14:50;;;;;;;7.23;3.10;;;11.70;95.40;;;;;;5046979;28;20232;-58
2023/05/27 02:17:16;;;;;;;6.23;2.73;;;11.60;95.70;;;;;;5049900;28;20212;-58
2023/05/27 02:19:42;;;;;;;12.90;3.10;;;11.60;95.90;;;;;;5042155;28;20445;-58
2023/05/27 02:22:08;;;;;;;13.30;2.83;;;11.70;96.20;;;;;;5046911;28;20181;-58
2023/05/27 02:24:33;;;;;;;6.63;1.80;;;11.40;96.20;;;;;;5048040;28;20833;-60
2023/05/27 02:27:01;;;;;;;7.23;2.27;;;11.30;96.60;;;;;;5049835;28;20201;-60
2023/05/27 02:29:27;;;;;;;11.70;2.93;;;11.20;96.90;;;;;;5039026;28;20186;-57
2023/05/27 02:31:52;;;;;;;6.33;2.83;;;11.20;97.10;;;;;;5049521;28;20528;-57
2023/05/27 02:34:18;;;;;;;4.33;2.10;;;11.00;97.40;;;;;;5036668;28;20186;-58
2023/05/27 02:36:43;;;;;;;6.03;2.70;;;11.10;97.80;;;;;;5050061;28;20200;-58
2023/05/27 02:39:10;;;;;;;11.83;3.20;;;11.00;97.80;;;;;;5049358;28;20583;-58
2023/05/27 02:41:36;;;;;;;7.30;2.50;;;11.00;98.00;;;;;;5049731;28;20276;-59
2023/05/27 02:44:02;;;;;;;5.33;1.90;;;10.90;98.20;;;;;;5040770;28;20512;-58
2023/05/27 02:46:28;;;;;;;7.57;2.67;;;10.80;98.50;;;;;;5050383;28;20639;-59
2023/05/27 02:48:53;;;;;;;7.63;2.30;;;10.80;98.60;;;;;;5050389;28;20520;-58
2023/05/27 02:51:20;;;;;;;6.80;2.37;;;10.70;98.70;;;;;;5053805;28;20578;-58
2023/05/27 02:53:46;;;;;;;6.90;2.87;;;10.80;99.10;;;;;;5040115;28;20179;-58
2023/05/27 02:56:11;;;;;;;4.43;2.33;;;10.80;99.10;;;;;;5047193;28;20839;-59
2023/05/27 02:58:37;;;;;;;5.70;2.83;;;10.70;99.10;;;;;;5049895;28;20186;-58
2023/05/27 03:01:03;;;;;;;7.40;2.43;;;10.50;99.60;;;;;;5053912;28;20307;-59
2023/05/27 03:03:29;;;;;;;4.10;2.23;;;10.50;99.90;;;;;;5053111;28;20201;-58
2023/05/27 03:05:54;;;;;;;3.60;1.47;;;10.40;99.90;;;;;;5053694;28;20189;-58
2023/05/27 03:08:20;;;;;;;7.97;2.90;;;10.40;99.90;;;;;;5053252;28;20447;-59
2023/05/27 03:10:46;;;;;;;10.30;2.70;;;10.50;99.90;;;;;;5053211;28;20538;-58
2023/05/27 03:13:11;;;;;;;5.67;2.63;;;10.30;99.90;;;;;;5052886;28;20205;-58
2023/05/27 03:15:38;;;;;;;5.03;2.30;;;10.30;99.90;;;;;;5053640;28;20296;-58
2023/05/27 03:18:03;;;;;;;12.40;3.20;;;10.20;99.90;;;;;;5051432;28;20532;-59
2023/05/27 03:20:29;;;;;;;6.40;2.20;;;10.20;99.90;;;;;;5045172;28;20480;-58
2023/05/27 03:22:56;;;;;;;4.97;2.27;;;10.10;99.90;;;;;;5050333;28;20179;-58
2023/05/27 03:25:21;;;;;;;6.70;2.03;;;10.20;99.90;;;;;;5043133;28;20217;-58
2023/05/27 03:27:47;;;;;;;8.60;3.53;;;10.20;99.90;;;;;;5048848;28;20443;-58
2023/05/27 03:30:13;;;;;;;8.77;2.43;;;10.10;99.90;;;;;;5042675;28;20213;-59
2023/05/27 03:32:38;;;;;;;6.53;2.67;;;10.10;99.90;;;;;;5053007;28;20249;-59
2023/05/27 03:35:04;;;;;;;8.10;2.03;;;10.20;99.90;;;;;;5053742;28;20202;-58
2023/05/27 03:37:30;;;;;;;10.37;2.80;;;10.20;99.90;;;;;;5053147;28;20694;-58
2023/05/27 03:39:57;;;;;;;7.30;2.50;;;10.10;99.90;;;;;;5052749;28;20420;-59
2023/05/27 03:42:22;;;;;;;7.37;3.00;;;10.10;99.90;;;;;;5052798;28;20209;-58
2023/05/27 03:44:48;;;;;;;10.97;1.90;;;10.20;99.90;;;;;;5035940;28;20509;-58
2023/05/27 03:47:17;;;;;;;5.47;2.03;;;10.10;99.90;;;;;;5047847;28;20699;-59
2023/05/27 03:49:42;;;;;;;5.10;2.27;;;10.10;99.90;;;;;;5053153;28;20629;-58
2023/05/27 03:52:08;;;;;;;3.90;2.00;;;10.00;99.90;;;;;;5052116;28;20459;-58
2023/05/27 03:54:34;;;;;;;12.47;2.40;;;10.10;99.90;;;;;;5049612;28;20203;-59
2023/05/27 03:56:59;;;;;;;4.63;2.10;;;10.10;99.90;;;;;;5034334;28;20506;-58
2023/05/27 03:59:25;;;;;;;6.80;2.50;;;10.10;99.90;;;;;;5047816;28;20535;-58
2023/05/27 04:01:51;;;;;;;8.60;3.27;;;10.10;99.90;;;;;;5050427;28;20587;-58
2023/05/27 04:04:16;;;;;;;4.87;1.97;;;10.10;99.90;;;;;;5052738;28;20613;-59
2023/05/27 04:06:42;;;;;;;13.47;3.07;;;10.10;99.90;;;;;;5052444;28;20197;-58
2023/05/27 04:09:08;;;;;;;4.27;2.23;;;10.00;99.90;;;;;;5051953;28;20535;-59
2023/05/27 04:11:33;;;;;;;4.30;2.23;;;10.00;99.90;;;;;;5052007;28;20749;-58
2023/05/27 04:13:59;;;;;;;6.87;2.50;;;9.90;99.90;;;;;;5049441;28;20182;-58
2023/05/27 04:16:24;;;;;;;3.97;1.90;;;10.00;99.90;;;;;;5052696;28;20268;-58
2023/05/27 04:18:51;;;;;;;4.77;1.93;;;10.10;99.90;;;;;;5050673;28;20178;-58
2023/05/27 04:21:20;;;;;;;9.10;2.97;;;10.20;99.90;;;;;;5044074;28;20196;-58
2023/05/27 04:23:46;;;;;;;5.03;2.40;;;10.20;99.90;;;;;;5048890;28;20431;-59
2023/05/27 04:26:12;;;;;;;7.00;2.57;;;10.30;99.90;;;;;;5052491;28;20424;-58
2023/05/27 04:28:39;;;;;;;6.47;2.07;;;10.20;99.90;;;;;;5045623;28;20186;-59
2023/05/27 04:31:05;;;;;;;5.93;2.60;;;10.30;99.90;;;;;;5048051;28;20490;-58
2023/05/27 04:33:30;;;;;;;6.47;2.20;;;10.30;99.90;;;;;;5051363;28;20427;-59
2023/05/27 04:35:56;;;;;;;6.40;2.30;;;10.30;99.90;;;;;;5051975;28;20454;-58
2023/05/27 04:38:22;;;;;;;7.90;2.83;;;10.30;99.90;;;;;;5051806;28;20512;-59
2023/05/27 04:40:53;;;;;;;10.70;3.17;;;10.40;99.90;;;;;;5051528;28;20182;-58
2023/05/27 04:43:22;;;;;;;4.40;2.33;;;10.50;99.90;;;;;;5046631;28;20413;-59
2023/05/27 04:45:49;;;;;;;7.30;2.70;;;10.50;99.90;;;;;;5048469;28;20436;-58
2023/05/27 04:48:15;;;;;;;8.83;2.70;;;10.60;99.90;;;;;;5051789;28;20418;-58
2023/05/27 04:50:41;;;;;;;4.03;2.27;;;10.60;99.90;;;;;;5051810;28;20424;-58
2023/05/27 04:53:07;;;;;;;5.13;2.40;;;10.60;99.90;;;;;;5051140;28;20467;-59
2023/05/27 04:55:33;;;;;;;8.93;2.87;;;10.70;99.90;;;;;;5043452;28;20424;-58
2023/05/27 04:57:58;;;;;;;5.03;2.50;;;10.70;99.90;;;;;;5050677;28;20181;-58
2023/05/27 05:00:38;;;;;;;5.00;2.07;;;10.80;99.90;;;;;;5047897;28;20653;-58
2023/05/27 05:03:07;;;;;;;12.20;2.77;;;10.80;99.90;;;;;;5051384;28;20186;-58
2023/05/27 05:05:32;;;;;;;5.87;2.40;;;10.90;99.90;;;;;;5051945;28;20884;-58
2023/05/27 05:07:58;;;;;;;8.57;2.40;;;11.10;99.90;;;;;;5051865;28;20447;-58
2023/05/27 05:10:24;;;;;;;7.20;2.10;;;11.00;99.90;;;;;;5050742;28;20186;-58
2023/05/27 05:12:49;;;;;;;7.87;2.57;;;11.10;99.90;;;;;;5049207;28;20346;-59
2023/05/27 05:15:15;;;;;;;5.83;2.23;;;11.20;99.90;;;;;;5049466;28;20178;-59
2023/05/27 05:17:41;;;;;;;5.40;2.23;;;11.30;99.90;;;;;;5051389;28;20180;-59
2023/05/27 05:20:08;;;;;;;19.83;3.63;;;11.40;99.90;;;;;;5040951;28;20175;-60
2023/05/27 05:22:34;;;;;;;4.60;2.70;;;11.50;99.90;;;;;;5046791;28;20170;-60
2023/05/27 05:25:00;;;;;;;4.03;2.00;;;11.40;99.90;;;;;;5048850;28;20460;-59
2023/05/27 05:27:27;;;;;;;5.93;2.03;;;11.60;99.90;;;;;;5051107;28;20514;-60
2023/05/27 05:29:53;;;;;;;16.70;3.00;;;11.60;99.90;;;;;;5037328;28;20272;-59
2023/05/27 05:32:19;;;;;;;5.47;3.27;;;11.70;99.90;;;;;;5050807;28;20463;-60
2023/05/27 05:34:45;;;;;;;9.80;2.50;;;11.70;99.90;;;;;;5050710;28;20189;-60
2023/05/27 05:37:11;;;;;;;4.90;2.30;;;11.70;99.90;;;;;;5051296;28;20418;-59
2023/05/27 05:39:36;;;;;;;6.87;3.03;;;11.80;99.90;;;;;;5050048;28;20170;-59
2023/05/27 05:42:02;;;;;;;8.47;3.50;;;11.90;99.90;;;;;;5050569;28;20194;-60
2023/05/27 05:44:28;;;;;;;14.80;2.30;;;12.10;99.90;;;;;;5041653;28;20192;-60
2023/05/27 05:46:54;;;;;;;5.17;2.47;;;12.30;99.90;;;;;;5050977;28;20424;-59
2023/05/27 05:49:20;;;;;;;7.87;2.50;;;12.30;99.70;;;;;;5051027;28;20576;-60
2023/05/27 05:51:45;;;;;;;6.17;2.00;;;12.50;99.20;;;;;;5050605;28;20233;-60
2023/05/27 05:54:12;;;;;;;11.80;2.80;;;12.50;98.90;;;;;;5050593;28;20658;-59
2023/05/27 05:56:38;;;;;;;8.57;2.80;;;12.70;98.70;;;;;;5042827;28;20452;-60
2023/05/27 05:59:03;;;;;;;6.93;1.90;;;12.70;98.70;;;;;;5045619;28;20259;-59
2023/05/27 06:01:29;;;;;;;16.30;3.27;;;12.80;98.60;;;;;;5050545;28;20273;-60
2023/05/27 06:03:56;;;;;;;7.23;3.20;;;13.00;98.50;;;;;;5050505;28;20642;-59
2023/05/27 06:06:21;;;;;;;9.47;1.70;;;13.00;98.30;;;;;;5050651;28;20231;-60
2023/05/27 06:08:47;;;;;;;7.27;1.90;;;13.10;98.40;;;;;;5049696;28;20755;-59
2023/05/27 06:11:13;;;;;;;6.40;2.80;;;13.30;98.40;;;;;;5050468;28;20232;-60
2023/05/27 06:13:39;;;;;;;6.93;2.13;;;13.40;97.60;;;;;;5046942;28;20268;-60
2023/05/27 06:16:05;;;;;;;12.70;2.47;;;13.40;97.30;;;;;;5050707;28;20285;-59
2023/05/27 06:18:31;;;;;;;10.60;2.73;;;13.50;97.20;;;;;;5048514;28;20412;-59
2023/05/27 06:20:57;;;;;;;13.07;2.93;;;13.40;97.20;;;;;;5041977;28;20900;-59
2023/05/27 06:23:23;;;;;;;7.90;2.30;;;13.50;97.30;;;;;;5043234;28;20700;-60
2023/05/27 06:25:48;;;;;;;7.63;2.33;;;13.60;97.00;;;;;;5049686;28;20256;-60
2023/05/27 06:28:14;;;;;;;6.83;2.10;;;13.70;97.30;;;;;;5047172;28;20194;-60
2023/05/27 06:30:40;;;;;;;4.30;2.00;;;13.60;96.50;;;;;;5042915;28;20198;-59
2023/05/27 06:33:06;;;;;;;17.87;2.73;;;13.80;97.00;;;;;;5049769;28;20215;-59
2023/05/27 06:35:32;;;;;;;5.30;1.33;;;13.70;97.00;;;;;;5050253;28;20178;-60
2023/05/27 06:38:00;;;;;;;7.83;3.00;;;13.80;96.60;;;;;;5050542;28;20794;-60
2023/05/27 06:40:26;;;;;;;8.40;2.70;;;13.90;96.40;;;;;;5050104;28;20289;-60
2023/05/27 06:42:53;;;;;;;12.00;2.27;;;14.00;96.70;;;;;;5048356;28;20451;-59
2023/05/27 06:45:19;;;;;;;11.10;2.17;;;14.10;96.70;;;;;;5043290;28;20264;-60
2023/05/27 06:47:45;;;;;;;7.47;2.10;;;14.20;96.20;;;;;;5050108;28;20499;-60
2023/05/27 06:50:10;;;;;;;3.57;2.20;;;14.40;96.30;;;;;;5037404;28;20186;-60
2023/05/27 06:52:36;;;;;;;5.90;2.73;;;14.50;95.80;;;;;;5049038;28;20657;-60
2023/05/27 06:55:02;;;;;;;5.60;2.37;;;14.80;97.00;;;;;;5043120;28;20501;-60
2023/05/27 06:57:27;;;;;;;5.33;1.97;;;15.00;95.80;;;;;;5049588;28;20182;-59
2023/05/27 06:59:53;;;;;;;7.10;2.57;;;14.60;95.50;;;;;;5046026;28;20182;-59
2023/05/27 07:02:19;;;;;;;15.37;2.60;;;14.70;95.60;;;;;;5049739;28;20185;-60
2023/05/27 07:04:45;;;;;;;7.20;1.97;;;15.20;96.60;;;;;;5049602;28;20444;-60
2023/05/27 07:07:11;;;;;;;10.67;2.30;;;15.20;95.00;;;;;;5050042;28;20205;-60
2023/05/27 07:09:36;;;;;;;9.13;2.00;;;15.20;95.40;;;;;;5049289;28;20421;-60
2023/05/27 07:12:02;;;;;;;3.80;2.10;;;15.50;95.30;;;;;;5049664;28;20220;-60
2023/05/27 07:14:28;;;;;;;9.50;2.87;;;15.70;95.40;;;;;;5047703;28;20642;-60
2023/05/27 07:16:54;;;;;;;7.77;2.53;;;16.30;94.10;;;;;;5049814;28;20459;-60
2023/05/27 07:19:19;;;;;;;6.30;2.10;;;16.40;93.30;;;;;;5044922;28;20530;-60
2023/05/27 07:21:45;;;;;;;2.77;1.60;;;16.80;93.30;;;;;;5042482;28;20175;-60
2023/05/27 07:24:11;;;;;;;9.83;3.03;;;17.20;93.90;;;;;;5047264;28;20702;-59
2023/05/27 07:26:37;;;;;;;5.53;2.67;;;17.90;91.50;;;;;;5050089;28;20177;-59
2023/05/27 07:29:03;;;;;;;5.70;2.33;;;18.80;90.50;;;;;;5023541;28;20595;-59
2023/05/27 07:31:29;;;;;;;14.43;3.10;;;17.90;90.40;;;;;;5031014;28;20440;-59
2023/05/27 07:33:55;;;;;;;13.63;3.70;;;17.80;91.20;;;;;;5027606;28;20917;-59
2023/05/27 07:36:21;;;;;;;13.00;3.47;;;18.40;90.20;;;;;;5033172;28;20439;-59
2023/05/27 07:38:46;;;;;;;4.33;2.40;;;19.10;87.40;;;;;;5041091;28;20697;-58
2023/05/27 07:41:12;;;;;;;5.57;2.37;;;20.10;84.20;;;;;;5031363;28;20187;-59
2023/05/27 07:43:38;;;;;;;5.10;3.07;;;20.30;84.10;;;;;;5035558;28;20183;-60
2023/05/27 07:46:03;;;;;;;8.40;3.07;;;21.20;82.90;;;;;;5031313;28;20193;-59
2023/05/27 07:48:29;;;;;;;8.33;2.20;;;23.20;77.70;;;;;;5034783;28;20231;-60
2023/05/27 07:50:55;;;;;;;5.00;2.10;;;22.60;78.10;;;;;;5031684;28;20174;-60
